sensor_id;sensor_type;location;lat;lon;timestamp;P1;durP1;ratioP1;P2;durP2;ratioP2
6757;SDS011;3416;53.074;8.822;2023-06-24T00:00:22;17.00;;;11.70;;
6757;SDS011;3416;53.074;8.822;2023-06-24T00:02:49;13.70;;;12.43;;
6757;SDS011;3416;53.074;8.822;2023-06-24T00:05:19;19.13;;;15.07;;
6757;SDS011;3416;53.074;8.822;2023-06-24T00:07:46;14.90;;;13.30;;
6757;SDS011;3416;53.074;8.822;2023-06-24T00:10:15;14.23;;;12.83;;
6757;SDS011;3416;53.074;8.822;2023-06-24T00:12:42;13.73;;;12.13;;
6757;SDS011;3416;53.074;8.822;2023-06-24T00:15:09;13.17;;;11.97;;
6757;SDS011;3416;53.074;8.822;2023-06-24T00:17:37;13.77;;;12.30;;
6757;SDS011;3416;53.074;8.822;2023-06-24T00:20:04;15.30;;;12.30;;
6757;SDS011;3416;53.074;8.822;2023-06-24T00:22:34;16.70;;;14.47;;
6757;SDS011;3416;53.074;8.822;2023-06-24T00:25:00;13.50;;;12.27;;
6757;SDS011;3416;53.074;8.822;2023-06-24T00:27:29;14.70;;;13.10;;
6757;SDS011;3416;53.074;8.822;2023-06-24T00:29:55;16.27;;;14.67;;
6757;SDS011;3416;53.074;8.822;2023-06-24T00:32:22;16.60;;;14.53;;
6757;SDS011;3416;53.074;8.822;2023-06-24T00:34:49;17.17;;;13.93;;
6757;SDS011;3416;53.074;8.822;2023-06-24T00:37:16;15.20;;;12.00;;
6757;SDS011;3416;53.074;8.822;2023-06-24T00:39:43;14.33;;;12.90;;
6757;SDS011;3416;53.074;8.822;2023-06-24T00:42:10;19.90;;;14.30;;
6757;SDS011;3416;53.074;8.822;2023-06-24T00:44:38;15.37;;;13.60;;
6757;SDS011;3416;53.074;8.822;2023-06-24T00:47:06;17.40;;;15.40;;
6757;SDS011;3416;53.074;8.822;2023-06-24T00:49:34;17.27;;;14.18;;
6757;SDS011;3416;53.074;8.822;2023-06-24T00:52:01;15.67;;;14.07;;
6757;SDS011;3416;53.074;8.822;2023-06-24T00:54:28;16.53;;;13.53;;
6757;SDS011;3416;53.074;8.822;2023-06-24T00:56:57;17.43;;;13.50;;
6757;SDS011;3416;53.074;8.822;2023-06-24T00:59:25;18.37;;;15.73;;
6757;SDS011;3416;53.074;8.822;2023-06-24T01:01:56;19.70;;;15.93;;
6757;SDS011;3416;53.074;8.822;2023-06-24T01:04:26;17.63;;;14.70;;
6757;SDS011;3416;53.074;8.822;2023-06-24T01:06:54;20.03;;;15.37;;
6757;SDS011;3416;53.074;8.822;2023-06-24T01:09:22;26.40;;;15.10;;
6757;SDS011;3416;53.074;8.822;2023-06-24T01:11:51;16.10;;;14.23;;
6757;SDS011;3416;53.074;8.822;2023-06-24T01:14:18;21.10;;;14.07;;
6757;SDS011;3416;53.074;8.822;2023-06-24T01:16:49;16.23;;;14.43;;
6757;SDS011;3416;53.074;8.822;2023-06-24T01:19:29;16.50;;;14.70;;
6757;SDS011;3416;53.074;8.822;2023-06-24T01:22:17;18.95;;;15.15;;
6757;SDS011;3416;53.074;8.822;2023-06-24T01:24:58;18.05;;;14.07;;
6757;SDS011;3416;53.074;8.822;2023-06-24T01:30:45;18.58;;;15.00;;
6757;SDS011;3416;53.074;8.822;2023-06-24T01:33:32;22.20;;;16.95;;
6757;SDS011;3416;53.074;8.822;2023-06-24T01:36:04;19.40;;;15.48;;
6757;SDS011;3416;53.074;8.822;2023-06-24T01:38:40;17.03;;;14.50;;
6757;SDS011;3416;53.074;8.822;2023-06-24T01:41:12;18.00;;;16.20;;
6757;SDS011;3416;53.074;8.822;2023-06-24T01:43:42;24.07;;;17.87;;
6757;SDS011;3416;53.074;8.822;2023-06-24T01:46:09;18.53;;;16.33;;
6757;SDS011;3416;53.074;8.822;2023-06-24T01:48:40;23.57;;;16.47;;
6757;SDS011;3416;53.074;8.822;2023-06-24T01:51:10;20.83;;;17.07;;
6757;SDS011;3416;53.074;8.822;2023-06-24T01:53:42;18.83;;;16.00;;
6757;SDS011;3416;53.074;8.822;2023-06-24T01:56:10;19.05;;;17.05;;
6757;SDS011;3416;53.074;8.822;2023-06-24T01:58:40;19.77;;;17.50;;
6757;SDS011;3416;53.074;8.822;2023-06-24T02:01:09;20.00;;;17.20;;
6757;SDS011;3416;53.074;8.822;2023-06-24T02:03:37;18.73;;;16.85;;
6757;SDS011;3416;53.074;8.822;2023-06-24T02:06:08;18.40;;;15.43;;
6757;SDS011;3416;53.074;8.822;2023-06-24T02:08:36;22.42;;;16.40;;
6757;SDS011;3416;53.074;8.822;2023-06-24T02:11:06;17.10;;;15.40;;
6757;SDS011;3416;53.074;8.822;2023-06-24T02:13:35;18.83;;;15.60;;
6757;SDS011;3416;53.074;8.822;2023-06-24T02:16:03;20.67;;;15.88;;
6757;SDS011;3416;53.074;8.822;2023-06-24T02:18:32;26.43;;;17.90;;
6757;SDS011;3416;53.074;8.822;2023-06-24T02:21:02;20.43;;;17.37;;
6757;SDS011;3416;53.074;8.822;2023-06-24T02:23:30;25.17;;;18.83;;
6757;SDS011;3416;53.074;8.822;2023-06-24T02:25:59;23.27;;;18.83;;
6757;SDS011;3416;53.074;8.822;2023-06-24T02:28:27;19.40;;;16.60;;
6757;SDS011;3416;53.074;8.822;2023-06-24T02:30:55;21.92;;;19.27;;
6757;SDS011;3416;53.074;8.822;2023-06-24T02:33:24;24.60;;;17.80;;
6757;SDS011;3416;53.074;8.822;2023-06-24T02:35:51;22.55;;;17.20;;
6757;SDS011;3416;53.074;8.822;2023-06-24T02:38:20;22.75;;;17.23;;
6757;SDS011;3416;53.074;8.822;2023-06-24T02:40:47;19.58;;;17.58;;
6757;SDS011;3416;53.074;8.822;2023-06-24T02:43:14;24.52;;;18.58;;
6757;SDS011;3416;53.074;8.822;2023-06-24T02:45:42;21.48;;;18.02;;
6757;SDS011;3416;53.074;8.822;2023-06-24T02:48:10;21.90;;;19.45;;
6757;SDS011;3416;53.074;8.822;2023-06-24T02:50:38;20.50;;;18.38;;
6757;SDS011;3416;53.074;8.822;2023-06-24T02:53:08;30.27;;;21.83;;
6757;SDS011;3416;53.074;8.822;2023-06-24T02:55:38;26.05;;;19.38;;
6757;SDS011;3416;53.074;8.822;2023-06-24T02:58:07;24.65;;;19.20;;
6757;SDS011;3416;53.074;8.822;2023-06-24T03:00:34;24.03;;;21.17;;
6757;SDS011;3416;53.074;8.822;2023-06-24T03:03:02;24.05;;;20.73;;
6757;SDS011;3416;53.074;8.822;2023-06-24T03:05:30;24.88;;;19.80;;
6757;SDS011;3416;53.074;8.822;2023-06-24T03:07:58;28.63;;;21.50;;
6757;SDS011;3416;53.074;8.822;2023-06-24T03:10:27;21.58;;;19.48;;
6757;SDS011;3416;53.074;8.822;2023-06-24T03:12:55;22.95;;;18.60;;
6757;SDS011;3416;53.074;8.822;2023-06-24T03:15:22;19.98;;;16.60;;
6757;SDS011;3416;53.074;8.822;2023-06-24T03:17:49;20.75;;;18.55;;
6757;SDS011;3416;53.074;8.822;2023-06-24T03:20:17;23.67;;;20.25;;
6757;SDS011;3416;53.074;8.822;2023-06-24T03:22:45;21.75;;;19.55;;
6757;SDS011;3416;53.074;8.822;2023-06-24T03:25:12;23.90;;;17.40;;
6757;SDS011;3416;53.074;8.822;2023-06-24T03:27:39;21.85;;;19.67;;
6757;SDS011;3416;53.074;8.822;2023-06-24T03:30:08;25.35;;;19.25;;
6757;SDS011;3416;53.074;8.822;2023-06-24T03:32:37;21.20;;;17.00;;
6757;SDS011;3416;53.074;8.822;2023-06-24T03:35:04;21.65;;;17.25;;
6757;SDS011;3416;53.074;8.822;2023-06-24T03:37:32;21.92;;;18.02;;
6757;SDS011;3416;53.074;8.822;2023-06-24T03:39:59;22.17;;;18.45;;
6757;SDS011;3416;53.074;8.822;2023-06-24T03:42:25;24.33;;;19.55;;
6757;SDS011;3416;53.074;8.822;2023-06-24T03:44:53;22.58;;;19.70;;
6757;SDS011;3416;53.074;8.822;2023-06-24T03:47:21;24.98;;;17.27;;
6757;SDS011;3416;53.074;8.822;2023-06-24T03:49:48;20.92;;;18.25;;
6757;SDS011;3416;53.074;8.822;2023-06-24T03:52:16;19.83;;;17.73;;
6757;SDS011;3416;53.074;8.822;2023-06-24T03:54:43;19.70;;;17.70;;
6757;SDS011;3416;53.074;8.822;2023-06-24T03:57:11;20.47;;;18.47;;
6757;SDS011;3416;53.074;8.822;2023-06-24T03:59:38;22.92;;;19.83;;
6757;SDS011;3416;53.074;8.822;2023-06-24T04:02:05;25.20;;;20.97;;
6757;SDS011;3416;53.074;8.822;2023-06-24T04:04:34;21.85;;;19.40;;
6757;SDS011;3416;53.074;8.822;2023-06-24T04:07:01;20.27;;;18.08;;
6757;SDS011;3416;53.074;8.822;2023-06-24T04:09:28;25.38;;;18.90;;
6757;SDS011;3416;53.074;8.822;2023-06-24T04:11:56;24.92;;;19.75;;
6757;SDS011;3416;53.074;8.822;2023-06-24T04:14:23;23.07;;;18.40;;
6757;SDS011;3416;53.074;8.822;2023-06-24T04:16:49;20.20;;;17.53;;
6757;SDS011;3416;53.074;8.822;2023-06-24T04:19:16;23.40;;;20.10;;
6757;SDS011;3416;53.074;8.822;2023-06-24T04:21:45;19.33;;;17.33;;
6757;SDS011;3416;53.074;8.822;2023-06-24T04:24:11;19.70;;;17.60;;
6757;SDS011;3416;53.074;8.822;2023-06-24T04:26:38;18.07;;;15.50;;
6757;SDS011;3416;53.074;8.822;2023-06-24T04:29:05;18.13;;;15.30;;
6757;SDS011;3416;53.074;8.822;2023-06-24T04:31:32;16.67;;;14.77;;
6757;SDS011;3416;53.074;8.822;2023-06-24T04:33:59;17.07;;;15.30;;
6757;SDS011;3416;53.074;8.822;2023-06-24T04:36:26;17.53;;;15.47;;
6757;SDS011;3416;53.074;8.822;2023-06-24T04:38:54;15.30;;;13.90;;
6757;SDS011;3416;53.074;8.822;2023-06-24T04:41:21;16.83;;;14.60;;
6757;SDS011;3416;53.074;8.822;2023-06-24T04:43:48;14.10;;;12.50;;
6757;SDS011;3416;53.074;8.822;2023-06-24T04:46:15;14.30;;;12.80;;
6757;SDS011;3416;53.074;8.822;2023-06-24T04:48:42;16.00;;;14.27;;
6757;SDS011;3416;53.074;8.822;2023-06-24T04:51:09;15.90;;;12.93;;
6757;SDS011;3416;53.074;8.822;2023-06-24T04:53:36;12.97;;;11.47;;
6757;SDS011;3416;53.074;8.822;2023-06-24T04:56:04;15.47;;;13.77;;
6757;SDS011;3416;53.074;8.822;2023-06-24T04:58:31;13.90;;;12.53;;
6757;SDS011;3416;53.074;8.822;2023-06-24T05:00:58;10.90;;;9.80;;
6757;SDS011;3416;53.074;8.822;2023-06-24T05:03:25;14.17;;;12.80;;
6757;SDS011;3416;53.074;8.822;2023-06-24T05:05:52;14.30;;;12.50;;
6757;SDS011;3416;53.074;8.822;2023-06-24T05:08:18;13.57;;;12.17;;
6757;SDS011;3416;53.074;8.822;2023-06-24T05:10:45;18.33;;;12.80;;
6757;SDS011;3416;53.074;8.822;2023-06-24T05:13:14;12.63;;;11.40;;
6757;SDS011;3416;53.074;8.822;2023-06-24T05:15:40;12.60;;;11.33;;
6757;SDS011;3416;53.074;8.822;2023-06-24T05:18:07;11.97;;;10.43;;
6757;SDS011;3416;53.074;8.822;2023-06-24T05:20:34;15.90;;;12.00;;
6757;SDS011;3416;53.074;8.822;2023-06-24T05:23:01;14.57;;;10.83;;
6757;SDS011;3416;53.074;8.822;2023-06-24T05:25:28;13.40;;;12.03;;
6757;SDS011;3416;53.074;8.822;2023-06-24T05:27:55;14.27;;;12.70;;
6757;SDS011;3416;53.074;8.822;2023-06-24T05:30:23;20.40;;;12.80;;
6757;SDS011;3416;53.074;8.822;2023-06-24T05:32:50;11.83;;;10.83;;
6757;SDS011;3416;53.074;8.822;2023-06-24T05:35:17;19.97;;;14.00;;
6757;SDS011;3416;53.074;8.822;2023-06-24T05:37:43;12.27;;;11.20;;
6757;SDS011;3416;53.074;8.822;2023-06-24T05:40:17;11.90;;;10.70;;
6757;SDS011;3416;53.074;8.822;2023-06-24T05:42:44;12.67;;;10.20;;
6757;SDS011;3416;53.074;8.822;2023-06-24T05:45:11;10.23;;;8.97;;
6757;SDS011;3416;53.074;8.822;2023-06-24T05:47:41;10.60;;;9.70;;
6757;SDS011;3416;53.074;8.822;2023-06-24T05:50:10;14.83;;;10.43;;
6757;SDS011;3416;53.074;8.822;2023-06-24T05:52:36;10.17;;;9.23;;
6757;SDS011;3416;53.074;8.822;2023-06-24T05:55:04;8.97;;;7.03;;
6757;SDS011;3416;53.074;8.822;2023-06-24T05:57:31;10.20;;;8.80;;
6757;SDS011;3416;53.074;8.822;2023-06-24T05:59:58;8.70;;;7.10;;
6757;SDS011;3416;53.074;8.822;2023-06-24T06:02:25;9.20;;;8.40;;
6757;SDS011;3416;53.074;8.822;2023-06-24T06:04:53;10.70;;;9.73;;
6757;SDS011;3416;53.074;8.822;2023-06-24T06:07:20;8.47;;;7.67;;
6757;SDS011;3416;53.074;8.822;2023-06-24T06:09:47;10.03;;;8.63;;
6757;SDS011;3416;53.074;8.822;2023-06-24T06:12:14;8.63;;;7.57;;
6757;SDS011;3416;53.074;8.822;2023-06-24T06:14:40;10.23;;;9.23;;
6757;SDS011;3416;53.074;8.822;2023-06-24T06:17:07;14.30;;;8.63;;
6757;SDS011;3416;53.074;8.822;2023-06-24T06:19:34;9.97;;;8.27;;
6757;SDS011;3416;53.074;8.822;2023-06-24T06:22:02;10.97;;;8.63;;
6757;SDS011;3416;53.074;8.822;2023-06-24T06:24:30;10.03;;;7.40;;
6757;SDS011;3416;53.074;8.822;2023-06-24T06:26:57;10.87;;;6.93;;
6757;SDS011;3416;53.074;8.822;2023-06-24T06:29:24;9.23;;;8.10;;
6757;SDS011;3416;53.074;8.822;2023-06-24T06:31:51;10.10;;;8.73;;
6757;SDS011;3416;53.074;8.822;2023-06-24T06:34:20;8.23;;;7.40;;
6757;SDS011;3416;53.074;8.822;2023-06-24T06:36:47;7.77;;;6.90;;
6757;SDS011;3416;53.074;8.822;2023-06-24T06:39:15;12.33;;;8.77;;
6757;SDS011;3416;53.074;8.822;2023-06-24T06:41:42;11.37;;;7.70;;
6757;SDS011;3416;53.074;8.822;2023-06-24T06:44:09;8.93;;;8.03;;
6757;SDS011;3416;53.074;8.822;2023-06-24T06:46:35;13.60;;;9.10;;
6757;SDS011;3416;53.074;8.822;2023-06-24T06:49:02;12.30;;;8.57;;
6757;SDS011;3416;53.074;8.822;2023-06-24T06:51:29;10.13;;;6.63;;
6757;SDS011;3416;53.074;8.822;2023-06-24T06:53:56;8.37;;;7.50;;
6757;SDS011;3416;53.074;8.822;2023-06-24T06:56:24;7.73;;;7.00;;
6757;SDS011;3416;53.074;8.822;2023-06-24T06:58:52;7.10;;;6.40;;
6757;SDS011;3416;53.074;8.822;2023-06-24T07:01:19;7.50;;;6.80;;
6757;SDS011;3416;53.074;8.822;2023-06-24T07:03:46;8.27;;;6.80;;
6757;SDS011;3416;53.074;8.822;2023-06-24T07:06:15;8.37;;;7.53;;
6757;SDS011;3416;53.074;8.822;2023-06-24T07:08:43;7.80;;;7.10;;
6757;SDS011;3416;53.074;8.822;2023-06-24T07:11:10;8.33;;;5.70;;
6757;SDS011;3416;53.074;8.822;2023-06-24T07:13:39;8.43;;;7.43;;
6757;SDS011;3416;53.074;8.822;2023-06-24T07:16:06;7.83;;;6.50;;
6757;SDS011;3416;53.074;8.822;2023-06-24T07:18:32;9.77;;;6.23;;
6757;SDS011;3416;53.074;8.822;2023-06-24T07:20:59;8.23;;;5.97;;
6757;SDS011;3416;53.074;8.822;2023-06-24T07:23:27;9.10;;;6.07;;
6757;SDS011;3416;53.074;8.822;2023-06-24T07:25:54;10.23;;;5.83;;
6757;SDS011;3416;53.074;8.822;2023-06-24T07:28:20;8.30;;;5.77;;
6757;SDS011;3416;53.074;8.822;2023-06-24T07:30:49;5.93;;;5.33;;
6757;SDS011;3416;53.074;8.822;2023-06-24T07:33:16;7.67;;;5.37;;
6757;SDS011;3416;53.074;8.822;2023-06-24T07:35:42;8.00;;;6.40;;
6757;SDS011;3416;53.074;8.822;2023-06-24T07:38:09;8.73;;;6.23;;
6757;SDS011;3416;53.074;8.822;2023-06-24T07:40:37;7.43;;;6.70;;
6757;SDS011;3416;53.074;8.822;2023-06-24T07:43:04;7.63;;;6.80;;
6757;SDS011;3416;53.074;8.822;2023-06-24T07:45:31;7.93;;;6.47;;
6757;SDS011;3416;53.074;8.822;2023-06-24T07:47:59;9.53;;;7.07;;
6757;SDS011;3416;53.074;8.822;2023-06-24T07:50:26;7.83;;;6.90;;
6757;SDS011;3416;53.074;8.822;2023-06-24T07:52:53;6.10;;;5.50;;
6757;SDS011;3416;53.074;8.822;2023-06-24T07:55:19;9.00;;;7.80;;
6757;SDS011;3416;53.074;8.822;2023-06-24T07:57:46;7.40;;;6.70;;
6757;SDS011;3416;53.074;8.822;2023-06-24T08:00:14;6.93;;;6.20;;
6757;SDS011;3416;53.074;8.822;2023-06-24T08:02:42;7.13;;;6.37;;
6757;SDS011;3416;53.074;8.822;2023-06-24T08:05:10;8.60;;;7.30;;
6757;SDS011;3416;53.074;8.822;2023-06-24T08:07:37;8.90;;;7.50;;
6757;SDS011;3416;53.074;8.822;2023-06-24T08:10:04;7.10;;;6.50;;
6757;SDS011;3416;53.074;8.822;2023-06-24T08:12:32;7.77;;;6.97;;
6757;SDS011;3416;53.074;8.822;2023-06-24T08:14:58;7.07;;;6.37;;
6757;SDS011;3416;53.074;8.822;2023-06-24T08:17:25;6.17;;;5.67;;
6757;SDS011;3416;53.074;8.822;2023-06-24T08:19:52;8.77;;;6.73;;
6757;SDS011;3416;53.074;8.822;2023-06-24T08:22:21;6.40;;;5.90;;
6757;SDS011;3416;53.074;8.822;2023-06-24T08:24:48;10.33;;;7.37;;
6757;SDS011;3416;53.074;8.822;2023-06-24T08:27:15;5.00;;;4.50;;
6757;SDS011;3416;53.074;8.822;2023-06-24T08:29:42;8.60;;;5.50;;
6757;SDS011;3416;53.074;8.822;2023-06-24T08:32:09;11.07;;;7.40;;
6757;SDS011;3416;53.074;8.822;2023-06-24T08:34:36;6.30;;;5.70;;
6757;SDS011;3416;53.074;8.822;2023-06-24T08:37:03;9.27;;;8.27;;
6757;SDS011;3416;53.074;8.822;2023-06-24T08:39:31;7.30;;;6.60;;
6757;SDS011;3416;53.074;8.822;2023-06-24T08:41:58;8.90;;;6.80;;
6757;SDS011;3416;53.074;8.822;2023-06-24T08:44:25;9.20;;;7.33;;
6757;SDS011;3416;53.074;8.822;2023-06-24T08:46:52;6.57;;;5.97;;
6757;SDS011;3416;53.074;8.822;2023-06-24T08:49:22;7.60;;;5.87;;
6757;SDS011;3416;53.074;8.822;2023-06-24T08:51:55;8.93;;;7.03;;
6757;SDS011;3416;53.074;8.822;2023-06-24T08:54:26;5.73;;;5.23;;
6757;SDS011;3416;53.074;8.822;2023-06-24T08:56:55;7.00;;;6.30;;
6757;SDS011;3416;53.074;8.822;2023-06-24T08:59:23;6.27;;;5.67;;
6757;SDS011;3416;53.074;8.822;2023-06-24T09:01:50;5.70;;;5.07;;
6757;SDS011;3416;53.074;8.822;2023-06-24T09:04:17;4.80;;;4.40;;
6757;SDS011;3416;53.074;8.822;2023-06-24T09:06:43;6.37;;;5.30;;
6757;SDS011;3416;53.074;8.822;2023-06-24T09:09:17;6.90;;;5.10;;
6757;SDS011;3416;53.074;8.822;2023-06-24T09:11:47;5.30;;;4.80;;
6757;SDS011;3416;53.074;8.822;2023-06-24T09:14:20;6.40;;;5.80;;
6757;SDS011;3416;53.074;8.822;2023-06-24T09:16:53;4.60;;;4.20;;
6757;SDS011;3416;53.074;8.822;2023-06-24T09:19:21;8.77;;;5.30;;
6757;SDS011;3416;53.074;8.822;2023-06-24T09:21:49;5.70;;;5.10;;
6757;SDS011;3416;53.074;8.822;2023-06-24T09:24:17;8.27;;;6.60;;
6757;SDS011;3416;53.074;8.822;2023-06-24T09:26:44;6.90;;;5.97;;
6757;SDS011;3416;53.074;8.822;2023-06-24T09:29:11;5.90;;;5.30;;
6757;SDS011;3416;53.074;8.822;2023-06-24T09:31:50;7.03;;;5.70;;
6757;SDS011;3416;53.074;8.822;2023-06-24T09:34:19;5.60;;;5.10;;
6757;SDS011;3416;53.074;8.822;2023-06-24T09:36:50;5.57;;;5.03;;
6757;SDS011;3416;53.074;8.822;2023-06-24T09:39:18;6.27;;;4.63;;
6757;SDS011;3416;53.074;8.822;2023-06-24T09:41:48;5.23;;;4.53;;
6757;SDS011;3416;53.074;8.822;2023-06-24T09:44:15;5.50;;;4.40;;
6757;SDS011;3416;53.074;8.822;2023-06-24T09:46:44;6.37;;;5.17;;
6757;SDS011;3416;53.074;8.822;2023-06-24T09:49:12;5.63;;;5.07;;
6757;SDS011;3416;53.074;8.822;2023-06-24T09:51:44;6.77;;;4.73;;
6757;SDS011;3416;53.074;8.822;2023-06-24T09:54:12;5.37;;;4.33;;
6757;SDS011;3416;53.074;8.822;2023-06-24T09:56:40;7.37;;;5.10;;
6757;SDS011;3416;53.074;8.822;2023-06-24T09:59:10;5.00;;;4.10;;
6757;SDS011;3416;53.074;8.822;2023-06-24T10:01:38;7.03;;;4.87;;
6757;SDS011;3416;53.074;8.822;2023-06-24T10:04:07;7.00;;;4.87;;
6757;SDS011;3416;53.074;8.822;2023-06-24T10:06:36;5.07;;;4.17;;
6757;SDS011;3416;53.074;8.822;2023-06-24T10:09:04;7.47;;;5.60;;
6757;SDS011;3416;53.074;8.822;2023-06-24T10:11:31;5.57;;;4.43;;
6757;SDS011;3416;53.074;8.822;2023-06-24T10:13:58;5.70;;;4.67;;
6757;SDS011;3416;53.074;8.822;2023-06-24T10:16:25;8.10;;;4.90;;
6757;SDS011;3416;53.074;8.822;2023-06-24T10:18:52;6.50;;;5.00;;
6757;SDS011;3416;53.074;8.822;2023-06-24T10:21:44;7.60;;;5.40;;
6757;SDS011;3416;53.074;8.822;2023-06-24T10:24:13;6.00;;;5.17;;
6757;SDS011;3416;53.074;8.822;2023-06-24T10:27:05;6.00;;;4.93;;
6757;SDS011;3416;53.074;8.822;2023-06-24T10:29:33;7.40;;;5.13;;
6757;SDS011;3416;53.074;8.822;2023-06-24T10:32:05;8.53;;;5.60;;
6757;SDS011;3416;53.074;8.822;2023-06-24T10:37:11;7.00;;;5.67;;
6757;SDS011;3416;53.074;8.822;2023-06-24T10:39:40;5.50;;;4.73;;
6757;SDS011;3416;53.074;8.822;2023-06-24T10:42:26;9.77;;;5.17;;
6757;SDS011;3416;53.074;8.822;2023-06-24T10:44:53;7.97;;;5.80;;
6757;SDS011;3416;53.074;8.822;2023-06-24T10:47:21;5.77;;;5.27;;
6757;SDS011;3416;53.074;8.822;2023-06-24T10:49:50;6.40;;;5.80;;
6757;SDS011;3416;53.074;8.822;2023-06-24T10:52:19;8.17;;;6.17;;
6757;SDS011;3416;53.074;8.822;2023-06-24T10:54:48;5.80;;;5.30;;
6757;SDS011;3416;53.074;8.822;2023-06-24T10:57:15;8.03;;;7.23;;
6757;SDS011;3416;53.074;8.822;2023-06-24T10:59:47;9.70;;;6.50;;
6757;SDS011;3416;53.074;8.822;2023-06-24T11:02:15;8.87;;;6.30;;
6757;SDS011;3416;53.074;8.822;2023-06-24T11:04:44;7.30;;;6.60;;
6757;SDS011;3416;53.074;8.822;2023-06-24T11:07:10;8.17;;;6.77;;
6757;SDS011;3416;53.074;8.822;2023-06-24T11:09:40;11.03;;;6.47;;
6757;SDS011;3416;53.074;8.822;2023-06-24T11:12:08;8.30;;;6.97;;
6757;SDS011;3416;53.074;8.822;2023-06-24T11:14:36;8.83;;;7.93;;
6757;SDS011;3416;53.074;8.822;2023-06-24T11:17:05;8.23;;;6.27;;
6757;SDS011;3416;53.074;8.822;2023-06-24T11:19:32;8.83;;;7.93;;
6757;SDS011;3416;53.074;8.822;2023-06-24T11:22:01;10.67;;;7.63;;
6757;SDS011;3416;53.074;8.822;2023-06-24T11:24:28;9.87;;;7.00;;
6757;SDS011;3416;53.074;8.822;2023-06-24T11:26:57;8.17;;;7.03;;
6757;SDS011;3416;53.074;8.822;2023-06-24T11:29:25;10.70;;;6.63;;
6757;SDS011;3416;53.074;8.822;2023-06-24T11:31:55;8.40;;;6.83;;
6757;SDS011;3416;53.074;8.822;2023-06-24T11:34:22;8.60;;;7.20;;
6757;SDS011;3416;53.074;8.822;2023-06-24T11:36:49;10.63;;;9.33;;
6757;SDS011;3416;53.074;8.822;2023-06-24T11:39:22;8.70;;;7.03;;
6757;SDS011;3416;53.074;8.822;2023-06-24T11:41:50;7.40;;;6.73;;
6757;SDS011;3416;53.074;8.822;2023-06-24T11:44:19;6.43;;;5.63;;
6757;SDS011;3416;53.074;8.822;2023-06-24T11:46:48;6.60;;;6.00;;
6757;SDS011;3416;53.074;8.822;2023-06-24T11:49:14;6.23;;;5.63;;
6757;SDS011;3416;53.074;8.822;2023-06-24T11:51:45;6.80;;;5.77;;
6757;SDS011;3416;53.074;8.822;2023-06-24T11:54:14;5.40;;;5.00;;
6757;SDS011;3416;53.074;8.822;2023-06-24T11:56:44;9.53;;;6.77;;
6757;SDS011;3416;53.074;8.822;2023-06-24T11:59:15;7.67;;;6.90;;
6757;SDS011;3416;53.074;8.822;2023-06-24T12:01:45;6.80;;;6.10;;
6757;SDS011;3416;53.074;8.822;2023-06-24T12:04:18;7.07;;;6.10;;
6757;SDS011;3416;53.074;8.822;2023-06-24T12:06:46;6.83;;;5.53;;
6757;SDS011;3416;53.074;8.822;2023-06-24T12:09:12;7.77;;;6.97;;
6757;SDS011;3416;53.074;8.822;2023-06-24T12:11:41;10.97;;;6.03;;
6757;SDS011;3416;53.074;8.822;2023-06-24T12:14:08;9.23;;;6.17;;
6757;SDS011;3416;53.074;8.822;2023-06-24T12:16:37;9.20;;;6.73;;
6757;SDS011;3416;53.074;8.822;2023-06-24T12:19:06;7.43;;;6.30;;
6757;SDS011;3416;53.074;8.822;2023-06-24T12:21:33;7.30;;;6.60;;
6757;SDS011;3416;53.074;8.822;2023-06-24T12:24:00;6.77;;;6.00;;
6757;SDS011;3416;53.074;8.822;2023-06-24T12:26:27;7.97;;;7.20;;
6757;SDS011;3416;53.074;8.822;2023-06-24T12:28:54;7.57;;;6.00;;
6757;SDS011;3416;53.074;8.822;2023-06-24T12:31:22;8.20;;;6.90;;
6757;SDS011;3416;53.074;8.822;2023-06-24T12:33:49;8.07;;;6.87;;
6757;SDS011;3416;53.074;8.822;2023-06-24T12:36:18;6.40;;;5.80;;
6757;SDS011;3416;53.074;8.822;2023-06-24T12:38:46;6.97;;;6.17;;
6757;SDS011;3416;53.074;8.822;2023-06-24T12:41:12;6.00;;;5.50;;
6757;SDS011;3416;53.074;8.822;2023-06-24T12:43:39;7.07;;;6.37;;
6757;SDS011;3416;53.074;8.822;2023-06-24T12:46:06;7.50;;;6.43;;
6757;SDS011;3416;53.074;8.822;2023-06-24T12:48:33;6.50;;;5.90;;
6757;SDS011;3416;53.074;8.822;2023-06-24T12:51:00;8.60;;;5.83;;
6757;SDS011;3416;53.074;8.822;2023-06-24T12:53:28;10.10;;;5.90;;
6757;SDS011;3416;53.074;8.822;2023-06-24T12:55:55;6.37;;;5.80;;
6757;SDS011;3416;53.074;8.822;2023-06-24T12:58:23;5.53;;;5.03;;
6757;SDS011;3416;53.074;8.822;2023-06-24T13:00:51;6.47;;;5.27;;
6757;SDS011;3416;53.074;8.822;2023-06-24T13:03:17;6.37;;;5.87;;
6757;SDS011;3416;53.074;8.822;2023-06-24T13:05:44;6.33;;;5.63;;
6757;SDS011;3416;53.074;8.822;2023-06-24T13:08:11;7.33;;;6.67;;
6757;SDS011;3416;53.074;8.822;2023-06-24T13:10:39;6.93;;;6.23;;
6757;SDS011;3416;53.074;8.822;2023-06-24T13:13:07;7.10;;;6.40;;
6757;SDS011;3416;53.074;8.822;2023-06-24T13:15:33;6.43;;;5.83;;
6757;SDS011;3416;53.074;8.822;2023-06-24T13:18:00;7.43;;;6.60;;
6757;SDS011;3416;53.074;8.822;2023-06-24T13:20:29;8.10;;;6.43;;
6757;SDS011;3416;53.074;8.822;2023-06-24T13:22:55;7.80;;;6.40;;
6757;SDS011;3416;53.074;8.822;2023-06-24T13:25:22;6.60;;;6.00;;
6757;SDS011;3416;53.074;8.822;2023-06-24T13:27:50;7.03;;;6.33;;
6757;SDS011;3416;53.074;8.822;2023-06-24T13:30:19;6.87;;;6.27;;
6757;SDS011;3416;53.074;8.822;2023-06-24T13:32:46;6.77;;;6.27;;
6757;SDS011;3416;53.074;8.822;2023-06-24T13:35:14;9.50;;;8.30;;
6757;SDS011;3416;53.074;8.822;2023-06-24T13:37:41;6.80;;;6.20;;
6757;SDS011;3416;53.074;8.822;2023-06-24T13:40:09;6.67;;;6.03;;
6757;SDS011;3416;53.074;8.822;2023-06-24T13:42:37;9.23;;;5.80;;
6757;SDS011;3416;53.074;8.822;2023-06-24T13:45:06;7.53;;;6.40;;
6757;SDS011;3416;53.074;8.822;2023-06-24T13:47:33;6.30;;;5.70;;
6757;SDS011;3416;53.074;8.822;2023-06-24T13:50:00;7.40;;;6.70;;
6757;SDS011;3416;53.074;8.822;2023-06-24T13:52:27;6.93;;;6.33;;
6757;SDS011;3416;53.074;8.822;2023-06-24T13:54:54;8.03;;;7.33;;
6757;SDS011;3416;53.074;8.822;2023-06-24T13:57:21;8.67;;;6.70;;
6757;SDS011;3416;53.074;8.822;2023-06-24T13:59:48;6.60;;;6.00;;
6757;SDS011;3416;53.074;8.822;2023-06-24T14:02:16;8.17;;;6.40;;
6757;SDS011;3416;53.074;8.822;2023-06-24T14:04:44;12.53;;;6.97;;
6757;SDS011;3416;53.074;8.822;2023-06-24T14:07:11;8.90;;;6.10;;
6757;SDS011;3416;53.074;8.822;2023-06-24T14:09:38;7.83;;;7.10;;
6757;SDS011;3416;53.074;8.822;2023-06-24T14:12:05;8.40;;;6.57;;
6757;SDS011;3416;53.074;8.822;2023-06-24T14:14:34;8.80;;;6.60;;
6757;SDS011;3416;53.074;8.822;2023-06-24T14:17:02;7.83;;;7.13;;
6757;SDS011;3416;53.074;8.822;2023-06-24T14:19:30;7.60;;;6.90;;
6757;SDS011;3416;53.074;8.822;2023-06-24T14:21:57;7.70;;;6.90;;
6757;SDS011;3416;53.074;8.822;2023-06-24T14:24:24;6.63;;;6.03;;
6757;SDS011;3416;53.074;8.822;2023-06-24T14:26:51;7.67;;;6.90;;
6757;SDS011;3416;53.074;8.822;2023-06-24T14:29:18;7.40;;;6.67;;
6757;SDS011;3416;53.074;8.822;2023-06-24T14:31:45;7.87;;;7.17;;
6757;SDS011;3416;53.074;8.822;2023-06-24T14:34:12;6.70;;;6.10;;
6757;SDS011;3416;53.074;8.822;2023-06-24T14:36:40;9.40;;;5.73;;
6757;SDS011;3416;53.074;8.822;2023-06-24T14:39:07;7.20;;;6.47;;
6757;SDS011;3416;53.074;8.822;2023-06-24T14:41:34;6.80;;;6.20;;
6757;SDS011;3416;53.074;8.822;2023-06-24T14:44:01;8.27;;;5.80;;
6757;SDS011;3416;53.074;8.822;2023-06-24T14:46:27;6.33;;;5.83;;
6757;SDS011;3416;53.074;8.822;2023-06-24T14:48:54;7.00;;;6.40;;
6757;SDS011;3416;53.074;8.822;2023-06-24T14:51:21;8.70;;;7.07;;
6757;SDS011;3416;53.074;8.822;2023-06-24T14:53:51;8.43;;;6.53;;
6757;SDS011;3416;53.074;8.822;2023-06-24T14:56:18;7.13;;;6.13;;
6757;SDS011;3416;53.074;8.822;2023-06-24T14:58:45;7.40;;;6.57;;
6757;SDS011;3416;53.074;8.822;2023-06-24T15:01:12;8.13;;;6.33;;
6757;SDS011;3416;53.074;8.822;2023-06-24T15:03:38;7.33;;;6.60;;
6757;SDS011;3416;53.074;8.822;2023-06-24T15:06:05;10.03;;;6.93;;
6757;SDS011;3416;53.074;8.822;2023-06-24T15:08:32;6.83;;;6.07;;
6757;SDS011;3416;53.074;8.822;2023-06-24T15:11:00;7.27;;;6.30;;
6757;SDS011;3416;53.074;8.822;2023-06-24T15:13:27;8.03;;;6.73;;